createdAt,value
2023-11-24T00:06:58.604Z,87.5
2023-11-24T00:15:44.677Z,87.5
2023-11-24T00:23:29.828Z,87.5
2023-11-24T00:31:45.494Z,87.5
2023-11-24T00:40:01.155Z,88
2023-11-24T00:48:16.702Z,88
2023-11-24T00:56:32.366Z,87.5
2023-11-24T01:04:47.930Z,87.5
2023-11-24T01:13:03.538Z,87.5
2023-11-24T01:21:19.143Z,88
2023-11-24T01:30:05.419Z,88
2023-11-24T01:46:05.880Z,88.5
2023-11-24T01:54:36.843Z,89
2023-11-24T02:02:37.109Z,89
2023-11-24T02:10:52.567Z,88.5
2023-11-24T02:19:08.381Z,89
2023-11-24T02:27:23.794Z,88.5
2023-11-24T02:35:39.411Z,88.5
2023-11-24T02:43:55.037Z,88.5
2023-11-24T02:53:11.019Z,88
2023-11-24T03:00:26.126Z,88
2023-11-24T03:08:41.670Z,88
2023-11-24T03:25:43.477Z,88
2023-11-24T03:33:28.429Z,87.5
2023-11-24T03:41:43.960Z,87
2023-11-24T03:49:59.545Z,87.5
2023-11-24T03:58:15.264Z,88
2023-11-24T04:06:30.817Z,88
2023-11-24T04:14:46.300Z,88
2023-11-24T04:23:01.888Z,88
2023-11-24T04:31:17.458Z,88.5
2023-11-24T04:39:33.016Z,88
2023-11-24T04:47:48.552Z,88
2023-11-24T04:56:04.075Z,87.5
2023-11-24T05:04:19.752Z,88
2023-11-24T05:12:35.262Z,88
2023-11-24T05:20:50.746Z,88
2023-11-24T05:29:06.385Z,88
2023-11-24T05:38:22.514Z,88
2023-11-24T05:45:44.774Z,88.5
2023-11-24T05:53:53.124Z,88.5
2023-11-24T06:02:08.735Z,88.5
2023-11-24T06:10:24.260Z,88.5
2023-11-24T06:18:39.856Z,88
2023-11-24T06:26:55.492Z,87.5
2023-11-24T06:35:11.081Z,87
2023-11-24T06:43:26.651Z,86.5
2023-11-24T06:51:42.331Z,86.5
2023-11-24T06:59:57.843Z,86.5
2023-11-24T07:08:13.412Z,86
2023-11-24T07:16:29.034Z,86.5
2023-11-24T07:24:44.629Z,86.5
2023-11-24T07:33:00.258Z,87
2023-11-24T07:41:15.857Z,87
2023-11-24T07:49:31.486Z,87
2023-11-24T07:57:47.149Z,86.5
2023-11-24T08:06:02.685Z,86.5
2023-11-24T08:14:18.270Z,86.5
2023-11-24T08:30:49.566Z,85
2023-11-24T08:39:05.127Z,85
2023-11-24T08:47:20.755Z,84.5
2023-11-24T08:55:36.367Z,82.5
2023-11-24T09:03:52.034Z,82.5
2023-11-24T09:12:07.646Z,81.5
2023-11-24T09:20:23.281Z,81.5
2023-11-24T09:28:38.928Z,81
2023-11-24T09:36:54.568Z,81
2023-11-24T09:45:10.193Z,81
2023-11-24T09:53:25.878Z,79.5
2023-11-24T10:09:57.208Z,80.5
2023-11-24T10:18:12.818Z,79.5
2023-11-24T10:26:28.458Z,79
2023-11-24T10:34:44.194Z,79
2023-11-24T10:42:59.981Z,76.5
2023-11-24T10:51:15.499Z,76
2023-11-24T10:59:31.194Z,76
2023-11-24T11:07:46.968Z,75.5
2023-11-24T11:16:02.677Z,76
2023-11-24T11:24:18.388Z,76.5
2023-11-24T11:32:34.105Z,77.5
2023-11-24T11:40:49.754Z,78.5
2023-11-24T11:49:05.480Z,78.5
2023-11-24T11:57:21.117Z,79
2023-11-24T12:05:36.800Z,79
2023-11-24T12:13:52.464Z,76.5
2023-11-24T12:22:08.178Z,75
2023-11-24T12:30:23.855Z,72.5
2023-11-24T12:38:39.640Z,65
2023-11-24T12:46:55.496Z,61.5
2023-11-24T12:55:11.317Z,62.5
2023-11-24T13:03:27.141Z,64
2023-11-24T13:11:43.098Z,66.5
2023-11-24T13:19:58.789Z,66
2023-11-24T13:28:14.716Z,68
2023-11-24T13:36:30.337Z,70.5
2023-11-24T13:44:46.301Z,71.5
2023-11-24T13:53:01.851Z,71
2023-11-24T14:01:17.891Z,73
2023-11-24T14:09:33.531Z,75
2023-11-24T14:17:49.061Z,76.5
2023-11-24T14:26:04.764Z,77.5
2023-11-24T14:34:20.649Z,79
2023-11-24T14:42:36.241Z,80
2023-11-24T14:50:51.958Z,80.5
2023-11-24T14:59:07.639Z,81
2023-11-24T15:07:23.448Z,81.5
2023-11-24T15:15:39.086Z,81.5
2023-11-24T15:23:54.792Z,81.5
2023-11-24T15:32:10.853Z,82.5
2023-11-24T15:40:26.285Z,83.5
2023-11-24T15:48:42.127Z,84
2023-11-24T15:56:57.723Z,84
2023-11-24T16:05:13.421Z,85
2023-11-24T16:13:29.172Z,86
2023-11-24T16:21:44.890Z,83.5
2023-11-24T16:30:00.644Z,82
2023-11-24T16:38:16.301Z,83
2023-11-24T16:46:32.101Z,83.5
2023-11-24T16:54:47.680Z,81.5
2023-11-24T17:03:03.476Z,81.5
2023-11-24T17:11:19.196Z,80.5
2023-11-24T17:19:34.842Z,78
2023-11-24T17:27:50.313Z,76
2023-11-24T17:36:06.137Z,76
2023-11-24T17:44:21.644Z,76.5
2023-11-24T17:52:37.297Z,76.5
2023-11-24T18:00:53.031Z,81.5
2023-11-24T18:09:08.576Z,79.5
2023-11-24T18:17:24.188Z,75.5
2023-11-24T18:25:40.240Z,73
2023-11-24T18:33:55.454Z,72
2023-11-24T18:42:10.995Z,71
2023-11-24T18:50:26.617Z,70
2023-11-24T18:58:42.163Z,66.5
2023-11-24T19:06:57.735Z,65.5
2023-11-24T19:15:13.326Z,67.5
2023-11-24T19:23:28.880Z,68
2023-11-24T19:31:44.480Z,68.5
2023-11-24T19:40:00.066Z,69.5
2023-11-24T19:48:15.620Z,70.5
2023-11-24T20:13:10.766Z,68.5
2023-11-24T20:21:17.929Z,70.5
2023-11-24T20:37:49.033Z,76.5
2023-11-24T20:46:04.754Z,76.5
2023-11-24T20:54:20.122Z,77.5
2023-11-24T21:02:35.720Z,78
2023-11-24T21:10:51.334Z,78
2023-11-24T21:19:06.821Z,77.5
2023-11-24T21:27:22.300Z,77
2023-11-24T21:43:53.428Z,78
2023-11-24T22:00:24.491Z,79.5
2023-11-24T22:08:40.000Z,80.5
2023-11-24T22:16:55.593Z,81.5
2023-11-24T22:41:42.089Z,78.5
2023-11-24T22:49:57.553Z,76.5
2023-11-24T23:06:28.570Z,75.5
2023-11-24T23:22:59.752Z,76
2023-11-24T23:31:15.189Z,75.5
2023-11-24T23:39:30.664Z,75.5
2023-11-24T23:56:01.680Z,73.5
